sensor_id;sensor_type;location;lat;lon;timestamp;P1;durP1;ratioP1;P2;durP2;ratioP2
31866;SDS011;18431;45.580;-122.680;2022-09-01T00:02:10;6.92;;;6.22;;
31866;SDS011;18431;45.580;-122.680;2022-09-01T00:04:42;6.92;;;6.22;;
31866;SDS011;18431;45.580;-122.680;2022-09-01T00:07:13;7.35;;;6.65;;
31866;SDS011;18431;45.580;-122.680;2022-09-01T00:09:43;7.22;;;6.53;;
31866;SDS011;18431;45.580;-122.680;2022-09-01T00:12:13;7.30;;;6.60;;
31866;SDS011;18431;45.580;-122.680;2022-09-01T00:14:43;8.40;;;6.62;;
31866;SDS011;18431;45.580;-122.680;2022-09-01T00:17:12;9.15;;;7.37;;
31866;SDS011;18431;45.580;-122.680;2022-09-01T00:19:42;7.92;;;6.95;;
31866;SDS011;18431;45.580;-122.680;2022-09-01T00:22:12;7.20;;;6.53;;
31866;SDS011;18431;45.580;-122.680;2022-09-01T00:24:42;6.95;;;6.25;;
31866;SDS011;18431;45.580;-122.680;2022-09-01T00:27:12;7.55;;;6.75;;
31866;SDS011;18431;45.580;-122.680;2022-09-01T00:29:42;8.73;;;7.30;;
31866;SDS011;18431;45.580;-122.680;2022-09-01T00:32:12;8.00;;;6.87;;
31866;SDS011;18431;45.580;-122.680;2022-09-01T00:34:42;8.28;;;7.25;;
31866;SDS011;18431;45.580;-122.680;2022-09-01T00:37:12;9.15;;;7.75;;
31866;SDS011;18431;45.580;-122.680;2022-09-01T00:39:42;8.88;;;7.97;;
31866;SDS011;18431;45.580;-122.680;2022-09-01T00:42:12;8.60;;;7.60;;
31866;SDS011;18431;45.580;-122.680;2022-09-01T00:44:42;8.63;;;7.72;;
31866;SDS011;18431;45.580;-122.680;2022-09-01T00:47:12;8.58;;;7.67;;
31866;SDS011;18431;45.580;-122.680;2022-09-01T00:49:42;8.08;;;6.87;;
31866;SDS011;18431;45.580;-122.680;2022-09-01T00:55:07;7.35;;;6.20;;
31866;SDS011;18431;45.580;-122.680;2022-09-01T00:57:41;7.20;;;6.50;;
31866;SDS011;18431;45.580;-122.680;2022-09-01T01:00:14;7.40;;;6.47;;
31866;SDS011;18431;45.580;-122.680;2022-09-01T01:02:45;7.40;;;6.70;;
31866;SDS011;18431;45.580;-122.680;2022-09-01T01:05:17;6.78;;;6.05;;
31866;SDS011;18431;45.580;-122.680;2022-09-01T01:07:48;7.58;;;6.78;;
31866;SDS011;18431;45.580;-122.680;2022-09-01T01:10:18;9.18;;;6.80;;
31866;SDS011;18431;45.580;-122.680;2022-09-01T01:12:51;7.45;;;6.70;;
31866;SDS011;18431;45.580;-122.680;2022-09-01T01:15:21;7.92;;;7.12;;
31866;SDS011;18431;45.580;-122.680;2022-09-01T01:17:51;9.10;;;7.70;;
31866;SDS011;18431;45.580;-122.680;2022-09-01T01:20:22;7.85;;;7.03;;
31866;SDS011;18431;45.580;-122.680;2022-09-01T01:23:24;9.70;;;7.75;;
31866;SDS011;18431;45.580;-122.680;2022-09-01T01:26:06;8.25;;;7.03;;
31866;SDS011;18431;45.580;-122.680;2022-09-01T01:28:38;9.63;;;6.70;;
31866;SDS011;18431;45.580;-122.680;2022-09-01T01:31:10;8.05;;;6.58;;
31866;SDS011;18431;45.580;-122.680;2022-09-01T01:33:45;6.75;;;6.15;;
31866;SDS011;18431;45.580;-122.680;2022-09-01T01:38:50;6.15;;;5.55;;
31866;SDS011;18431;45.580;-122.680;2022-09-01T01:41:21;6.05;;;5.45;;
31866;SDS011;18431;45.580;-122.680;2022-09-01T01:43:51;6.28;;;5.67;;
31866;SDS011;18431;45.580;-122.680;2022-09-01T01:46:21;6.30;;;5.70;;
31866;SDS011;18431;45.580;-122.680;2022-09-01T01:48:52;6.00;;;5.42;;
31866;SDS011;18431;45.580;-122.680;2022-09-01T01:51:22;6.00;;;5.40;;
31866;SDS011;18431;45.580;-122.680;2022-09-01T01:53:54;5.80;;;5.30;;
31866;SDS011;18431;45.580;-122.680;2022-09-01T01:56:25;5.70;;;5.20;;
31866;SDS011;18431;45.580;-122.680;2022-09-01T01:58:56;5.80;;;5.20;;
31866;SDS011;18431;45.580;-122.680;2022-09-01T02:01:28;5.85;;;5.35;;
31866;SDS011;18431;45.580;-122.680;2022-09-01T02:03:58;5.30;;;4.80;;
31866;SDS011;18431;45.580;-122.680;2022-09-01T02:06:31;5.95;;;5.35;;
31866;SDS011;18431;45.580;-122.680;2022-09-01T02:09:03;5.33;;;4.83;;
31866;SDS011;18431;45.580;-122.680;2022-09-01T02:11:33;5.70;;;5.20;;
31866;SDS011;18431;45.580;-122.680;2022-09-01T02:16:53;5.30;;;4.80;;
31866;SDS011;18431;45.580;-122.680;2022-09-01T02:19:22;5.20;;;4.70;;
31866;SDS011;18431;45.580;-122.680;2022-09-01T02:21:52;4.62;;;4.22;;
31866;SDS011;18431;45.580;-122.680;2022-09-01T02:24:22;4.20;;;3.80;;
31866;SDS011;18431;45.580;-122.680;2022-09-01T02:26:54;4.30;;;3.90;;
31866;SDS011;18431;45.580;-122.680;2022-09-01T02:29:25;3.65;;;3.35;;
31866;SDS011;18431;45.580;-122.680;2022-09-01T02:31:56;3.60;;;3.30;;
31866;SDS011;18431;45.580;-122.680;2022-09-01T02:34:26;3.52;;;3.22;;
31866;SDS011;18431;45.580;-122.680;2022-09-01T02:36:58;3.45;;;3.15;;
31866;SDS011;18431;45.580;-122.680;2022-09-01T02:39:29;3.60;;;3.30;;
31866;SDS011;18431;45.580;-122.680;2022-09-01T02:42:02;3.50;;;3.30;;
31866;SDS011;18431;45.580;-122.680;2022-09-01T02:44:32;3.50;;;3.20;;
31866;SDS011;18431;45.580;-122.680;2022-09-01T02:47:03;3.47;;;3.17;;
31866;SDS011;18431;45.580;-122.680;2022-09-01T02:52:25;3.00;;;2.80;;
31866;SDS011;18431;45.580;-122.680;2022-09-01T02:54:56;3.05;;;2.85;;
31866;SDS011;18431;45.580;-122.680;2022-09-01T02:57:26;3.10;;;2.90;;
31866;SDS011;18431;45.580;-122.680;2022-09-01T02:59:57;3.00;;;2.80;;
31866;SDS011;18431;45.580;-122.680;2022-09-01T03:02:27;3.40;;;3.02;;
31866;SDS011;18431;45.580;-122.680;2022-09-01T03:04:57;3.55;;;2.87;;
31866;SDS011;18431;45.580;-122.680;2022-09-01T03:07:28;3.10;;;2.90;;
31866;SDS011;18431;45.580;-122.680;2022-09-01T03:09:58;2.90;;;2.70;;
31866;SDS011;18431;45.580;-122.680;2022-09-01T03:12:29;2.90;;;2.70;;
31866;SDS011;18431;45.580;-122.680;2022-09-01T03:14:59;3.00;;;2.80;;
31866;SDS011;18431;45.580;-122.680;2022-09-01T03:17:29;3.30;;;3.00;;
31866;SDS011;18431;45.580;-122.680;2022-09-01T03:19:59;3.05;;;2.75;;
31866;SDS011;18431;45.580;-122.680;2022-09-01T03:22:29;2.70;;;2.50;;
31866;SDS011;18431;45.580;-122.680;2022-09-01T03:25:00;2.75;;;2.55;;
31866;SDS011;18431;45.580;-122.680;2022-09-01T03:27:30;2.40;;;2.20;;
31866;SDS011;18431;45.580;-122.680;2022-09-01T03:30:00;2.30;;;2.12;;
31866;SDS011;18431;45.580;-122.680;2022-09-01T03:35:19;2.02;;;1.92;;
31866;SDS011;18431;45.580;-122.680;2022-09-01T03:37:49;1.95;;;1.82;;
31866;SDS011;18431;45.580;-122.680;2022-09-01T03:40:19;1.90;;;1.80;;
31866;SDS011;18431;45.580;-122.680;2022-09-01T03:42:49;2.12;;;1.98;;
31866;SDS011;18431;45.580;-122.680;2022-09-01T03:45:20;1.90;;;1.80;;
31866;SDS011;18431;45.580;-122.680;2022-09-01T03:47:52;2.10;;;2.00;;
31866;SDS011;18431;45.580;-122.680;2022-09-01T03:50:23;2.00;;;1.90;;
31866;SDS011;18431;45.580;-122.680;2022-09-01T03:52:55;1.90;;;1.80;;
31866;SDS011;18431;45.580;-122.680;2022-09-01T03:55:28;1.80;;;1.70;;
31866;SDS011;18431;45.580;-122.680;2022-09-01T03:58:01;2.00;;;1.90;;
31866;SDS011;18431;45.580;-122.680;2022-09-01T04:00:33;2.00;;;1.90;;
31866;SDS011;18431;45.580;-122.680;2022-09-01T04:03:09;1.98;;;1.87;;
31866;SDS011;18431;45.580;-122.680;2022-09-01T04:05:43;2.40;;;1.90;;
31866;SDS011;18431;45.580;-122.680;2022-09-01T04:08:14;2.00;;;1.90;;
31866;SDS011;18431;45.580;-122.680;2022-09-01T04:10:51;1.92;;;1.82;;
31866;SDS011;18431;45.580;-122.680;2022-09-01T04:13:22;2.10;;;1.80;;
31866;SDS011;18431;45.580;-122.680;2022-09-01T04:15:54;1.70;;;1.60;;
31866;SDS011;18431;45.580;-122.680;2022-09-01T04:18:24;1.95;;;1.80;;
31866;SDS011;18431;45.580;-122.680;2022-09-01T04:20:56;2.02;;;1.70;;
31866;SDS011;18431;45.580;-122.680;2022-09-01T04:23:31;1.70;;;1.60;;
31866;SDS011;18431;45.580;-122.680;2022-09-01T04:26:04;1.80;;;1.70;;
31866;SDS011;18431;45.580;-122.680;2022-09-01T04:28:40;1.75;;;1.65;;
31866;SDS011;18431;45.580;-122.680;2022-09-01T04:31:16;1.82;;;1.72;;
31866;SDS011;18431;45.580;-122.680;2022-09-01T04:33:48;1.75;;;1.65;;
31866;SDS011;18431;45.580;-122.680;2022-09-01T04:36:22;1.70;;;1.60;;
31866;SDS011;18431;45.580;-122.680;2022-09-01T04:38:59;1.72;;;1.62;;
31866;SDS011;18431;45.580;-122.680;2022-09-01T04:41:30;1.80;;;1.70;;
31866;SDS011;18431;45.580;-122.680;2022-09-01T04:44:05;2.08;;;1.98;;
31866;SDS011;18431;45.580;-122.680;2022-09-01T04:46:37;2.12;;;1.92;;
31866;SDS011;18431;45.580;-122.680;2022-09-01T04:49:09;1.85;;;1.75;;
31866;SDS011;18431;45.580;-122.680;2022-09-01T04:51:41;1.50;;;1.40;;
31866;SDS011;18431;45.580;-122.680;2022-09-01T04:54:13;1.52;;;1.42;;
31866;SDS011;18431;45.580;-122.680;2022-09-01T04:56:45;1.65;;;1.55;;
31866;SDS011;18431;45.580;-122.680;2022-09-01T04:59:20;1.17;;;1.17;;
31866;SDS011;18431;45.580;-122.680;2022-09-01T05:02:09;1.52;;;1.42;;
31866;SDS011;18431;45.580;-122.680;2022-09-01T05:04:39;1.20;;;1.20;;
31866;SDS011;18431;45.580;-122.680;2022-09-01T05:07:10;1.40;;;1.32;;
31866;SDS011;18431;45.580;-122.680;2022-09-01T05:09:43;1.40;;;1.30;;
31866;SDS011;18431;45.580;-122.680;2022-09-01T05:12:13;1.20;;;1.20;;
31866;SDS011;18431;45.580;-122.680;2022-09-01T05:14:44;1.40;;;1.30;;
31866;SDS011;18431;45.580;-122.680;2022-09-01T05:17:14;1.12;;;1.12;;
31866;SDS011;18431;45.580;-122.680;2022-09-01T05:19:45;1.62;;;1.52;;
31866;SDS011;18431;45.580;-122.680;2022-09-01T05:22:17;1.45;;;1.35;;
31866;SDS011;18431;45.580;-122.680;2022-09-01T05:24:57;1.50;;;1.40;;
31866;SDS011;18431;45.580;-122.680;2022-09-01T05:27:32;1.90;;;1.80;;
31866;SDS011;18431;45.580;-122.680;2022-09-01T05:30:02;1.42;;;1.32;;
31866;SDS011;18431;45.580;-122.680;2022-09-01T05:32:34;1.60;;;1.50;;
31866;SDS011;18431;45.580;-122.680;2022-09-01T05:35:06;1.50;;;1.40;;
31866;SDS011;18431;45.580;-122.680;2022-09-01T05:37:36;1.72;;;1.62;;
31866;SDS011;18431;45.580;-122.680;2022-09-01T05:40:07;1.90;;;1.80;;
31866;SDS011;18431;45.580;-122.680;2022-09-01T05:42:39;2.02;;;1.60;;
31866;SDS011;18431;45.580;-122.680;2022-09-01T05:45:10;1.87;;;1.77;;
31866;SDS011;18431;45.580;-122.680;2022-09-01T05:47:40;1.90;;;1.80;;
31866;SDS011;18431;45.580;-122.680;2022-09-01T05:50:10;1.50;;;1.40;;
31866;SDS011;18431;45.580;-122.680;2022-09-01T05:52:41;1.77;;;1.67;;
31866;SDS011;18431;45.580;-122.680;2022-09-01T05:55:13;2.02;;;1.82;;
31866;SDS011;18431;45.580;-122.680;2022-09-01T05:57:42;1.90;;;1.80;;
31866;SDS011;18431;45.580;-122.680;2022-09-01T06:03:04;1.77;;;1.67;;
31866;SDS011;18431;45.580;-122.680;2022-09-01T06:08:26;2.00;;;1.90;;
31866;SDS011;18431;45.580;-122.680;2022-09-01T06:10:56;1.90;;;1.80;;
31866;SDS011;18431;45.580;-122.680;2022-09-01T06:13:26;1.92;;;1.82;;
31866;SDS011;18431;45.580;-122.680;2022-09-01T06:15:56;2.05;;;1.95;;
31866;SDS011;18431;45.580;-122.680;2022-09-01T06:18:27;1.75;;;1.65;;
31866;SDS011;18431;45.580;-122.680;2022-09-01T06:20:59;2.10;;;1.90;;
31866;SDS011;18431;45.580;-122.680;2022-09-01T06:23:31;2.05;;;1.87;;
31866;SDS011;18431;45.580;-122.680;2022-09-01T06:26:01;2.00;;;1.90;;
31866;SDS011;18431;45.580;-122.680;2022-09-01T06:28:31;2.25;;;2.08;;
31866;SDS011;18431;45.580;-122.680;2022-09-01T06:33:52;1.90;;;1.80;;
31866;SDS011;18431;45.580;-122.680;2022-09-01T06:36:24;2.30;;;2.20;;
31866;SDS011;18431;45.580;-122.680;2022-09-01T06:38:54;2.17;;;2.08;;
31866;SDS011;18431;45.580;-122.680;2022-09-01T06:41:24;1.92;;;1.82;;
31866;SDS011;18431;45.580;-122.680;2022-09-01T06:43:55;2.20;;;2.10;;
31866;SDS011;18431;45.580;-122.680;2022-09-01T06:46:26;2.25;;;2.15;;
31866;SDS011;18431;45.580;-122.680;2022-09-01T06:48:56;2.52;;;2.33;;
31866;SDS011;18431;45.580;-122.680;2022-09-01T06:51:36;2.50;;;2.30;;
31866;SDS011;18431;45.580;-122.680;2022-09-01T06:54:06;2.10;;;2.00;;
31866;SDS011;18431;45.580;-122.680;2022-09-01T06:56:39;2.35;;;2.15;;
31866;SDS011;18431;45.580;-122.680;2022-09-01T06:59:29;2.40;;;2.30;;
31866;SDS011;18431;45.580;-122.680;2022-09-01T07:01:59;2.83;;;2.62;;
31866;SDS011;18431;45.580;-122.680;2022-09-01T07:04:30;2.50;;;2.30;;
31866;SDS011;18431;45.580;-122.680;2022-09-01T07:07:00;2.58;;;2.37;;
31866;SDS011;18431;45.580;-122.680;2022-09-01T07:09:31;2.33;;;2.22;;
31866;SDS011;18431;45.580;-122.680;2022-09-01T07:12:01;2.60;;;2.40;;
31866;SDS011;18431;45.580;-122.680;2022-09-01T07:14:31;3.35;;;2.60;;
31866;SDS011;18431;45.580;-122.680;2022-09-01T07:19:50;3.00;;;2.70;;
31866;SDS011;18431;45.580;-122.680;2022-09-01T07:22:20;2.60;;;2.40;;
31866;SDS011;18431;45.580;-122.680;2022-09-01T07:24:50;2.80;;;2.60;;
31866;SDS011;18431;45.580;-122.680;2022-09-01T07:30:15;2.77;;;2.58;;
31866;SDS011;18431;45.580;-122.680;2022-09-01T07:32:46;3.77;;;2.70;;
31866;SDS011;18431;45.580;-122.680;2022-09-01T07:35:18;3.00;;;2.80;;
31866;SDS011;18431;45.580;-122.680;2022-09-01T07:37:48;2.85;;;2.65;;
31866;SDS011;18431;45.580;-122.680;2022-09-01T07:40:19;3.42;;;3.12;;
31866;SDS011;18431;45.580;-122.680;2022-09-01T07:42:52;2.87;;;2.67;;
31866;SDS011;18431;45.580;-122.680;2022-09-01T07:45:24;3.25;;;3.00;;
31866;SDS011;18431;45.580;-122.680;2022-09-01T07:47:54;2.95;;;2.75;;
31866;SDS011;18431;45.580;-122.680;2022-09-01T07:50:26;2.98;;;2.77;;
31866;SDS011;18431;45.580;-122.680;2022-09-01T07:52:56;2.90;;;2.70;;
31866;SDS011;18431;45.580;-122.680;2022-09-01T07:55:27;2.90;;;2.70;;
31866;SDS011;18431;45.580;-122.680;2022-09-01T07:57:58;2.92;;;2.72;;
31866;SDS011;18431;45.580;-122.680;2022-09-01T08:00:28;3.00;;;2.80;;
31866;SDS011;18431;45.580;-122.680;2022-09-01T08:02:58;3.08;;;2.87;;
31866;SDS011;18431;45.580;-122.680;2022-09-01T08:05:28;3.20;;;2.90;;
31866;SDS011;18431;45.580;-122.680;2022-09-01T08:07:58;3.27;;;3.08;;
31866;SDS011;18431;45.580;-122.680;2022-09-01T08:10:28;3.15;;;2.95;;
31866;SDS011;18431;45.580;-122.680;2022-09-01T08:12:58;3.30;;;3.10;;
31866;SDS011;18431;45.580;-122.680;2022-09-01T08:15:28;3.42;;;3.12;;
31866;SDS011;18431;45.580;-122.680;2022-09-01T08:17:58;3.50;;;3.20;;
31866;SDS011;18431;45.580;-122.680;2022-09-01T08:20:28;3.55;;;3.25;;
31866;SDS011;18431;45.580;-122.680;2022-09-01T08:23:00;3.40;;;3.10;;
31866;SDS011;18431;45.580;-122.680;2022-09-01T08:25:31;4.00;;;3.58;;
31866;SDS011;18431;45.580;-122.680;2022-09-01T08:28:03;4.03;;;3.72;;
31866;SDS011;18431;45.580;-122.680;2022-09-01T08:30:34;3.72;;;3.42;;
31866;SDS011;18431;45.580;-122.680;2022-09-01T08:33:05;3.77;;;3.47;;
31866;SDS011;18431;45.580;-122.680;2022-09-01T08:35:40;3.60;;;3.30;;
31866;SDS011;18431;45.580;-122.680;2022-09-01T08:38:11;3.47;;;3.17;;
31866;SDS011;18431;45.580;-122.680;2022-09-01T08:40:41;3.40;;;3.10;;
31866;SDS011;18431;45.580;-122.680;2022-09-01T08:56:53;3.62;;;3.33;;
31866;SDS011;18431;45.580;-122.680;2022-09-01T08:59:25;3.65;;;3.35;;
31866;SDS011;18431;45.580;-122.680;2022-09-01T09:04:32;3.90;;;3.60;;
31866;SDS011;18431;45.580;-122.680;2022-09-01T09:07:17;3.60;;;3.30;;
31866;SDS011;18431;45.580;-122.680;2022-09-01T09:10:07;4.10;;;3.80;;
31866;SDS011;18431;45.580;-122.680;2022-09-01T09:15:39;3.95;;;3.55;;
31866;SDS011;18431;45.580;-122.680;2022-09-01T09:20:55;4.05;;;3.65;;
31866;SDS011;18431;45.580;-122.680;2022-09-01T09:23:28;3.80;;;3.50;;
31866;SDS011;18431;45.580;-122.680;2022-09-01T09:25:59;3.98;;;3.67;;
31866;SDS011;18431;45.580;-122.680;2022-09-01T09:28:29;4.30;;;3.90;;
31866;SDS011;18431;45.580;-122.680;2022-09-01T09:33:54;3.70;;;3.40;;
31866;SDS011;18431;45.580;-122.680;2022-09-01T09:36:36;4.28;;;3.87;;
31866;SDS011;18431;45.580;-122.680;2022-09-01T09:39:13;3.90;;;3.60;;
31866;SDS011;18431;45.580;-122.680;2022-09-01T09:41:40;3.95;;;3.65;;
31866;SDS011;18431;45.580;-122.680;2022-09-01T09:44:17;3.90;;;3.60;;
31866;SDS011;18431;45.580;-122.680;2022-09-01T09:46:50;4.12;;;3.80;;
31866;SDS011;18431;45.580;-122.680;2022-09-01T09:49:27;4.15;;;3.75;;
31866;SDS011;18431;45.580;-122.680;2022-09-01T09:54:58;4.08;;;3.77;;
31866;SDS011;18431;45.580;-122.680;2022-09-01T09:57:30;4.17;;;3.80;;
31866;SDS011;18431;45.580;-122.680;2022-09-01T10:02:52;4.03;;;3.72;;
31866;SDS011;18431;45.580;-122.680;2022-09-01T10:05:31;3.87;;;3.58;;
31866;SDS011;18431;45.580;-122.680;2022-09-01T10:07:56;4.10;;;3.80;;
31866;SDS011;18431;45.580;-122.680;2022-09-01T10:10:37;4.58;;;4.17;;
31866;SDS011;18431;45.580;-122.680;2022-09-01T10:13:11;4.40;;;4.00;;
31866;SDS011;18431;45.580;-122.680;2022-09-01T10:15:49;4.25;;;3.85;;
31866;SDS011;18431;45.580;-122.680;2022-09-01T10:18:17;4.25;;;3.90;;
31866;SDS011;18431;45.580;-122.680;2022-09-01T10:20:50;3.87;;;3.58;;
31866;SDS011;18431;45.580;-122.680;2022-09-01T10:23:22;4.47;;;4.08;;
31866;SDS011;18431;45.580;-122.680;2022-09-01T10:25:59;4.17;;;3.77;;
31866;SDS011;18431;45.580;-122.680;2022-09-01T10:28:26;4.45;;;4.05;;
31866;SDS011;18431;45.580;-122.680;2022-09-01T10:30:58;4.53;;;4.12;;
31866;SDS011;18431;45.580;-122.680;2022-09-01T10:33:28;4.25;;;3.87;;
31866;SDS011;18431;45.580;-122.680;2022-09-01T10:35:58;4.40;;;4.00;;
31866;SDS011;18431;45.580;-122.680;2022-09-01T10:38:29;4.47;;;4.10;;
31866;SDS011;18431;45.580;-122.680;2022-09-01T10:40:59;4.40;;;4.00;;
31866;SDS011;18431;45.580;-122.680;2022-09-01T10:43:46;4.17;;;3.87;;
31866;SDS011;18431;45.580;-122.680;2022-09-01T10:46:57;4.37;;;4.00;;
31866;SDS011;18431;45.580;-122.680;2022-09-01T10:48:54;4.28;;;3.90;;
31866;SDS011;18431;45.580;-122.680;2022-09-01T10:53:59;4.15;;;3.85;;
31866;SDS011;18431;45.580;-122.680;2022-09-01T10:56:41;4.28;;;3.87;;
31866;SDS011;18431;45.580;-122.680;2022-09-01T11:02:30;4.40;;;4.00;;
31866;SDS011;18431;45.580;-122.680;2022-09-01T11:15:50;4.17;;;3.87;;
31866;SDS011;18431;45.580;-122.680;2022-09-01T11:18:24;4.53;;;4.12;;
31866;SDS011;18431;45.580;-122.680;2022-09-01T11:23:44;4.37;;;4.00;;
31866;SDS011;18431;45.580;-122.680;2022-09-01T11:29:05;4.70;;;4.10;;
31866;SDS011;18431;45.580;-122.680;2022-09-01T11:31:43;4.35;;;3.98;;
31866;SDS011;18431;45.580;-122.680;2022-09-01T11:34:17;4.47;;;4.08;;
31866;SDS011;18431;45.580;-122.680;2022-09-01T11:36:54;4.47;;;4.08;;
31866;SDS011;18431;45.580;-122.680;2022-09-01T11:39:32;4.60;;;4.20;;
31866;SDS011;18431;45.580;-122.680;2022-09-01T11:42:05;4.28;;;3.90;;
31866;SDS011;18431;45.580;-122.680;2022-09-01T11:47:35;4.37;;;3.98;;
31866;SDS011;18431;45.580;-122.680;2022-09-01T11:50:18;4.58;;;4.17;;
31866;SDS011;18431;45.580;-122.680;2022-09-01T11:52:57;4.42;;;4.03;;
31866;SDS011;18431;45.580;-122.680;2022-09-01T11:55:38;4.60;;;4.20;;
31866;SDS011;18431;45.580;-122.680;2022-09-01T11:58:02;4.55;;;4.15;;
31866;SDS011;18431;45.580;-122.680;2022-09-01T12:03:22;4.75;;;4.30;;
31866;SDS011;18431;45.580;-122.680;2022-09-01T12:05:55;4.95;;;4.53;;
31866;SDS011;18431;45.580;-122.680;2022-09-01T12:08:35;4.55;;;4.15;;
31866;SDS011;18431;45.580;-122.680;2022-09-01T12:13:40;4.67;;;4.28;;
31866;SDS011;18431;45.580;-122.680;2022-09-01T12:16:20;4.67;;;4.28;;
31866;SDS011;18431;45.580;-122.680;2022-09-01T12:18:45;4.60;;;4.20;;
31866;SDS011;18431;45.580;-122.680;2022-09-01T12:21:19;4.60;;;4.20;;
31866;SDS011;18431;45.580;-122.680;2022-09-01T12:23:50;4.47;;;4.08;;
31866;SDS011;18431;45.580;-122.680;2022-09-01T12:26:26;4.50;;;4.10;;
31866;SDS011;18431;45.580;-122.680;2022-09-01T12:28:52;4.28;;;3.98;;
31866;SDS011;18431;45.580;-122.680;2022-09-01T12:31:24;4.40;;;4.00;;
31866;SDS011;18431;45.580;-122.680;2022-09-01T12:33:55;4.50;;;4.10;;
31866;SDS011;18431;45.580;-122.680;2022-09-01T12:36:33;4.70;;;4.30;;
31866;SDS011;18431;45.580;-122.680;2022-09-01T12:42:02;5.03;;;4.53;;
31866;SDS011;18431;45.580;-122.680;2022-09-01T12:47:13;4.67;;;4.28;;
31866;SDS011;18431;45.580;-122.680;2022-09-01T12:49:47;4.40;;;4.00;;
31866;SDS011;18431;45.580;-122.680;2022-09-01T12:52:19;4.28;;;3.98;;
31866;SDS011;18431;45.580;-122.680;2022-09-01T12:54:51;4.60;;;4.20;;
31866;SDS011;18431;45.580;-122.680;2022-09-01T12:57:36;4.60;;;4.30;;
31866;SDS011;18431;45.580;-122.680;2022-09-01T13:02:45;4.30;;;4.00;;
31866;SDS011;18431;45.580;-122.680;2022-09-01T13:08:06;4.58;;;4.17;;
31866;SDS011;18431;45.580;-122.680;2022-09-01T13:10:33;4.55;;;4.17;;
31866;SDS011;18431;45.580;-122.680;2022-09-01T13:13:08;4.33;;;4.03;;
31866;SDS011;18431;45.580;-122.680;2022-09-01T13:15:40;4.17;;;3.87;;
31866;SDS011;18431;45.580;-122.680;2022-09-01T13:18:13;4.35;;;4.03;;
31866;SDS011;18431;45.580;-122.680;2022-09-01T13:20:43;4.70;;;4.30;;
31866;SDS011;18431;45.580;-122.680;2022-09-01T13:23:13;4.62;;;4.22;;
31866;SDS011;18431;45.580;-122.680;2022-09-01T13:25:44;4.50;;;4.10;;
31866;SDS011;18431;45.580;-122.680;2022-09-01T13:28:14;4.55;;;4.15;;
31866;SDS011;18431;45.580;-122.680;2022-09-01T13:30:45;4.42;;;4.03;;
31866;SDS011;18431;45.580;-122.680;2022-09-01T13:33:18;4.42;;;4.03;;
31866;SDS011;18431;45.580;-122.680;2022-09-01T13:35:48;4.30;;;3.98;;
31866;SDS011;18431;45.580;-122.680;2022-09-01T13:38:18;4.60;;;4.20;;
31866;SDS011;18431;45.580;-122.680;2022-09-01T13:40:49;4.50;;;4.12;;
31866;SDS011;18431;45.580;-122.680;2022-09-01T13:43:21;4.70;;;4.30;;
31866;SDS011;18431;45.580;-122.680;2022-09-01T13:45:52;4.70;;;4.30;;
31866;SDS011;18431;45.580;-122.680;2022-09-01T13:48:22;4.20;;;3.90;;
31866;SDS011;18431;45.580;-122.680;2022-09-01T13:50:56;4.92;;;4.40;;
31866;SDS011;18431;45.580;-122.680;2022-09-01T13:53:26;4.62;;;4.22;;
31866;SDS011;18431;45.580;-122.680;2022-09-01T13:55:58;4.75;;;4.35;;
31866;SDS011;18431;45.580;-122.680;2022-09-01T13:58:46;4.25;;;3.95;;
31866;SDS011;18431;45.580;-122.680;2022-09-01T14:01:17;4.50;;;4.10;;
31866;SDS011;18431;45.580;-122.680;2022-09-01T14:03:47;4.60;;;4.20;;
31866;SDS011;18431;45.580;-122.680;2022-09-01T14:06:18;4.50;;;4.10;;
31866;SDS011;18431;45.580;-122.680;2022-09-01T14:08:48;4.70;;;4.20;;
31866;SDS011;18431;45.580;-122.680;2022-09-01T14:11:18;4.58;;;4.17;;
31866;SDS011;18431;45.580;-122.680;2022-09-01T14:13:48;4.60;;;4.20;;
31866;SDS011;18431;45.580;-122.680;2022-09-01T14:16:17;4.42;;;4.10;;
31866;SDS011;18431;45.580;-122.680;2022-09-01T14:18:47;4.75;;;4.25;;
31866;SDS011;18431;45.580;-122.680;2022-09-01T14:24:06;4.87;;;4.47;;
31866;SDS011;18431;45.580;-122.680;2022-09-01T14:26:36;4.60;;;4.20;;
31866;SDS011;18431;45.580;-122.680;2022-09-01T14:29:07;4.53;;;4.12;;
31866;SDS011;18431;45.580;-122.680;2022-09-01T14:31:37;4.70;;;4.30;;
31866;SDS011;18431;45.580;-122.680;2022-09-01T14:34:09;4.83;;;4.37;;
31866;SDS011;18431;45.580;-122.680;2022-09-01T14:36:39;5.22;;;4.72;;
31866;SDS011;18431;45.580;-122.680;2022-09-01T14:39:10;4.90;;;4.50;;
31866;SDS011;18431;45.580;-122.680;2022-09-01T14:41:40;4.55;;;4.17;;
31866;SDS011;18431;45.580;-122.680;2022-09-01T14:44:09;4.85;;;4.42;;
31866;SDS011;18431;45.580;-122.680;2022-09-01T14:46:39;4.90;;;4.50;;
31866;SDS011;18431;45.580;-122.680;2022-09-01T14:49:09;4.45;;;4.12;;
31866;SDS011;18431;45.580;-122.680;2022-09-01T14:51:41;4.87;;;4.47;;
31866;SDS011;18431;45.580;-122.680;2022-09-01T14:54:11;4.50;;;4.20;;
31866;SDS011;18431;45.580;-122.680;2022-09-01T14:56:41;4.80;;;4.28;;
31866;SDS011;18431;45.580;-122.680;2022-09-01T14:59:11;4.83;;;4.20;;
31866;SDS011;18431;45.580;-122.680;2022-09-01T15:01:41;4.40;;;4.00;;
31866;SDS011;18431;45.580;-122.680;2022-09-01T15:04:31;4.75;;;4.35;;
31866;SDS011;18431;45.580;-122.680;2022-09-01T15:07:01;4.80;;;4.40;;
31866;SDS011;18431;45.580;-122.680;2022-09-01T15:09:32;4.50;;;4.10;;
31866;SDS011;18431;45.580;-122.680;2022-09-01T15:12:03;4.87;;;4.47;;
31866;SDS011;18431;45.580;-122.680;2022-09-01T15:14:35;4.90;;;4.50;;
31866;SDS011;18431;45.580;-122.680;2022-09-01T15:17:05;4.75;;;4.35;;
31866;SDS011;18431;45.580;-122.680;2022-09-01T15:19:35;4.90;;;4.50;;
31866;SDS011;18431;45.580;-122.680;2022-09-01T15:22:06;5.15;;;4.67;;
31866;SDS011;18431;45.580;-122.680;2022-09-01T15:24:37;4.62;;;4.22;;
31866;SDS011;18431;45.580;-122.680;2022-09-01T15:27:07;4.80;;;4.40;;
31866;SDS011;18431;45.580;-122.680;2022-09-01T15:29:37;5.08;;;4.67;;
31866;SDS011;18431;45.580;-122.680;2022-09-01T15:32:09;4.60;;;4.20;;
31866;SDS011;18431;45.580;-122.680;2022-09-01T15:34:40;5.00;;;4.42;;
31866;SDS011;18431;45.580;-122.680;2022-09-01T15:37:10;4.50;;;4.10;;
31866;SDS011;18431;45.580;-122.680;2022-09-01T15:39:40;5.20;;;4.70;;
31866;SDS011;18431;45.580;-122.680;2022-09-01T15:42:10;5.00;;;4.60;;
31866;SDS011;18431;45.580;-122.680;2022-09-01T15:44:39;5.10;;;4.47;;
31866;SDS011;18431;45.580;-122.680;2022-09-01T15:47:09;5.00;;;4.60;;
31866;SDS011;18431;45.580;-122.680;2022-09-01T15:49:39;4.85;;;4.45;;
31866;SDS011;18431;45.580;-122.680;2022-09-01T15:52:09;4.90;;;4.50;;
31866;SDS011;18431;45.580;-122.680;2022-09-01T15:54:49;4.60;;;4.20;;
31866;SDS011;18431;45.580;-122.680;2022-09-01T16:00:08;4.80;;;4.40;;
31866;SDS011;18431;45.580;-122.680;2022-09-01T16:02:38;4.72;;;4.33;;
31866;SDS011;18431;45.580;-122.680;2022-09-01T16:05:09;5.17;;;4.78;;
31866;SDS011;18431;45.580;-122.680;2022-09-01T16:10:29;4.92;;;4.50;;
31866;SDS011;18431;45.580;-122.680;2022-09-01T16:12:59;4.90;;;4.50;;
31866;SDS011;18431;45.580;-122.680;2022-09-01T16:15:29;5.47;;;4.97;;
31866;SDS011;18431;45.580;-122.680;2022-09-01T16:18:18;4.87;;;4.40;;
31866;SDS011;18431;45.580;-122.680;2022-09-01T16:20:58;5.15;;;4.72;;
31866;SDS011;18431;45.580;-122.680;2022-09-01T16:23:42;5.03;;;4.58;;
31866;SDS011;18431;45.580;-122.680;2022-09-01T16:26:18;4.55;;;4.20;;